KDPA/DPA METAR and TAF weather

Enter ICAO airport designator
Station Type Date Time Source
KDPA METAR 2020/07/13 13:52 UTC NOAA

KDPA 131352Z 07003KT 10SM CLR 22/17 A3003 RMK AO2 SLP164 T02220167


Station Type Date Time Source
KDPA Decoded METAR 2020/07/13 13:52 UTC NOAA

CHICAGO/WEST CH DUPAGE, IL, United States (KDPA) 41-54N 88-15W 230M
Jul 13, 2020 - 09:52 AM EDT / 2020.07.13 1352 UTC
Wind: from the ENE (070 degrees) at 3 MPH (3 KT):0
Visibility: 10 mile(s):0
Sky conditions: clear
Temperature: 72.0 F (22.2 C)
Dew Point: 62.1 F (16.7 C)
Relative Humidity: 71%
Pressure (altimeter): 30.03 in. Hg (1016 hPa)
ob: KDPA 131352Z 07003KT 10SM CLR 22/17 A3003 RMK AO2 SLP164 T02220167
cycle: 14

Station Type Date Time Source
KDPA TAF 2020/07/13 12:22 UTC NOAA

TAF KDPA 131120Z 1312/1412 VRB03KT P6SM FEW250
FM131600 VRB05KT P6SM BKN050
FM140000 14005KT P6SM FEW050

Example: see airport list